createdAt,value
2018-02-19T00:00:27.959Z,0
2018-02-19T00:01:08.517Z,0
2018-02-19T00:01:49.078Z,0
2018-02-19T00:02:29.616Z,0
2018-02-19T00:03:10.185Z,0
2018-02-19T00:03:51.270Z,0
2018-02-19T00:04:31.822Z,0
2018-02-19T00:05:12.385Z,0
2018-02-19T00:05:52.949Z,0
2018-02-19T00:06:33.582Z,0
2018-02-19T00:07:14.158Z,0
2018-02-19T00:07:54.712Z,0
2018-02-19T00:08:35.337Z,0
2018-02-19T00:09:15.882Z,0
2018-02-19T00:09:56.460Z,0
2018-02-19T00:10:37.051Z,0
2018-02-19T00:11:17.580Z,0
2018-02-19T00:11:58.125Z,0
2018-02-19T00:12:38.675Z,0
2018-02-19T00:13:19.233Z,0
2018-02-19T00:13:59.778Z,0
2018-02-19T00:14:40.314Z,0
2018-02-19T00:15:20.861Z,0
2018-02-19T00:16:01.427Z,0
2018-02-19T00:16:41.985Z,0
2018-02-19T00:17:22.537Z,0
2018-02-19T00:18:03.114Z,0
2018-02-19T00:18:43.639Z,0
2018-02-19T00:19:24.196Z,0
2018-02-19T00:20:04.747Z,0
2018-02-19T00:20:45.293Z,0
2018-02-19T00:21:25.843Z,0
2018-02-19T00:22:06.428Z,0
2018-02-19T00:22:46.981Z,0
2018-02-19T00:23:27.546Z,0
2018-02-19T00:24:08.108Z,0
2018-02-19T00:24:48.669Z,0
2018-02-19T00:25:29.262Z,0
2018-02-19T00:26:09.791Z,0
2018-02-19T00:26:50.337Z,0
2018-02-19T00:27:30.893Z,0
2018-02-19T00:28:11.466Z,0
2018-02-19T00:28:52.006Z,0
2018-02-19T00:29:32.562Z,0
2018-02-19T00:30:13.115Z,0
2018-02-19T00:30:53.684Z,0
2018-02-19T00:31:34.244Z,0
2018-02-19T00:32:14.803Z,0
2018-02-19T00:32:55.374Z,0
2018-02-19T00:33:35.936Z,0
2018-02-19T00:34:16.528Z,0
2018-02-19T00:34:57.066Z,0
2018-02-19T00:35:37.626Z,0
2018-02-19T00:38:05.705Z,0
2018-02-19T00:38:46.231Z,0
2018-02-19T00:39:26.785Z,0
2018-02-19T00:40:07.351Z,0
2018-02-19T00:40:47.893Z,0
2018-02-19T00:41:28.434Z,0
2018-02-19T00:42:08.990Z,0
2018-02-19T00:42:49.570Z,0
2018-02-19T00:43:30.083Z,0
2018-02-19T00:44:10.638Z,0
2018-02-19T00:44:51.205Z,0
2018-02-19T00:45:31.769Z,0
2018-02-19T00:46:12.333Z,0
2018-02-19T00:46:52.860Z,0
2018-02-19T00:47:33.408Z,0
2018-02-19T00:48:13.969Z,0
2018-02-19T00:48:54.511Z,0
2018-02-19T00:49:35.056Z,0
2018-02-19T00:50:15.613Z,0
2018-02-19T00:50:56.170Z,0
2018-02-19T00:51:36.713Z,0
2018-02-19T00:52:17.278Z,0
2018-02-19T00:52:57.856Z,0
2018-02-19T00:53:38.387Z,0
2018-02-19T00:54:18.934Z,0
2018-02-19T00:54:59.486Z,0
2018-02-19T00:55:40.035Z,0
2018-02-19T00:56:20.593Z,0
2018-02-19T00:57:01.136Z,0
2018-02-19T00:57:41.682Z,0
2018-02-19T00:58:22.238Z,0
2018-02-19T00:59:02.788Z,0
2018-02-19T00:59:43.330Z,0
2018-02-19T01:00:23.871Z,0
2018-02-19T01:01:04.440Z,0
2018-02-19T01:01:44.999Z,0
2018-02-19T01:02:25.527Z,0
2018-02-19T01:03:06.107Z,0
2018-02-19T01:03:46.685Z,0
2018-02-19T01:04:27.265Z,0
2018-02-19T01:05:07.808Z,0
2018-02-19T01:05:48.371Z,0
2018-02-19T01:06:28.921Z,0
2018-02-19T01:07:09.493Z,0
2018-02-19T01:07:50.051Z,0
2018-02-19T01:08:30.617Z,0
2018-02-19T01:09:11.169Z,0
2018-02-19T01:09:51.698Z,0
2018-02-19T01:10:32.262Z,0
2018-02-19T01:11:12.803Z,0
2018-02-19T01:11:53.344Z,0
2018-02-19T01:12:33.967Z,0
2018-02-19T01:13:14.532Z,0
2018-02-19T01:13:55.083Z,0
2018-02-19T01:14:35.651Z,0
2018-02-19T01:15:16.201Z,0
2018-02-19T01:15:56.759Z,0
2018-02-19T01:16:37.311Z,0
2018-02-19T01:17:17.898Z,0
2018-02-19T01:17:58.436Z,0
2018-02-19T01:18:38.963Z,0
2018-02-19T01:19:19.527Z,0
2018-02-19T01:20:00.076Z,0
2018-02-19T01:20:40.626Z,0
2018-02-19T01:21:21.191Z,0
2018-02-19T01:22:01.720Z,0
2018-02-19T01:22:42.282Z,0
2018-02-19T01:23:22.825Z,0
2018-02-19T01:24:03.404Z,0
2018-02-19T01:24:43.979Z,0
2018-02-19T01:25:24.547Z,0
2018-02-19T01:26:05.110Z,0
2018-02-19T01:26:45.670Z,0
2018-02-19T01:27:26.252Z,0
2018-02-19T01:28:06.831Z,0
2018-02-19T01:28:47.399Z,0
2018-02-19T01:29:27.963Z,0
2018-02-19T01:30:08.550Z,0
2018-02-19T01:30:49.086Z,0
2018-02-19T01:31:29.638Z,0
2018-02-19T01:32:10.189Z,0
2018-02-19T01:32:50.740Z,0
2018-02-19T01:33:31.301Z,0
2018-02-19T01:34:11.884Z,0
2018-02-19T01:34:52.409Z,0
2018-02-19T01:35:32.953Z,0
2018-02-19T01:36:13.591Z,0
2018-02-19T01:36:54.133Z,0
2018-02-19T01:37:34.705Z,0
2018-02-19T01:38:15.253Z,0
2018-02-19T01:38:55.838Z,0
2018-02-19T01:39:36.380Z,0
2018-02-19T01:40:16.921Z,0
2018-02-19T01:40:57.456Z,0
2018-02-19T01:41:38.024Z,0
2018-02-19T01:42:18.574Z,0
2018-02-19T01:42:59.133Z,0
2018-02-19T01:43:39.686Z,0
2018-02-19T01:44:20.274Z,0
2018-02-19T01:45:00.861Z,0
2018-02-19T01:45:41.439Z,0
2018-02-19T01:46:21.989Z,0
2018-02-19T01:47:02.540Z,0
2018-02-19T01:47:43.086Z,0
2018-02-19T01:48:23.627Z,0
2018-02-19T01:49:04.178Z,0
2018-02-19T01:49:44.730Z,0
2018-02-19T01:50:25.289Z,0
2018-02-19T01:51:05.840Z,0
2018-02-19T01:51:46.381Z,0
2018-02-19T01:52:26.943Z,0
2018-02-19T01:53:07.496Z,0
2018-02-19T01:53:48.057Z,0
2018-02-19T01:54:28.605Z,0
2018-02-19T01:55:09.159Z,0
2018-02-19T01:55:49.708Z,0
2018-02-19T01:56:30.288Z,0
2018-02-19T01:57:10.875Z,0
2018-02-19T01:57:51.469Z,0
2018-02-19T01:58:32.027Z,0
2018-02-19T01:59:12.580Z,0
2018-02-19T01:59:53.127Z,0
2018-02-19T02:00:33.666Z,0
2018-02-19T02:01:14.243Z,0
2018-02-19T02:01:54.798Z,0
2018-02-19T02:02:35.328Z,0
2018-02-19T02:03:15.879Z,0
2018-02-19T02:03:56.434Z,0
2018-02-19T02:04:37.002Z,0
2018-02-19T02:05:17.550Z,0
2018-02-19T02:05:58.118Z,0
2018-02-19T02:06:38.677Z,0
2018-02-19T02:07:19.238Z,0
2018-02-19T02:07:59.796Z,0
2018-02-19T02:08:40.364Z,0
2018-02-19T02:09:20.921Z,0
2018-02-19T02:10:01.460Z,0
2018-02-19T02:10:42.031Z,0
2018-02-19T02:11:22.600Z,0
2018-02-19T02:12:03.144Z,0
2018-02-19T02:12:43.732Z,0
2018-02-19T02:13:24.282Z,0
2018-02-19T02:14:04.885Z,0
2018-02-19T02:14:45.444Z,0
2018-02-19T02:15:26.029Z,0
2018-02-19T02:16:06.572Z,0
2018-02-19T02:16:47.134Z,0
2018-02-19T02:17:27.692Z,0
2018-02-19T02:18:08.265Z,0
2018-02-19T02:18:48.842Z,0
2018-02-19T02:19:29.383Z,0
2018-02-19T02:20:09.974Z,0
2018-02-19T02:20:50.526Z,0
2018-02-19T02:21:31.071Z,0
2018-02-19T02:22:11.677Z,0
2018-02-19T02:22:52.218Z,0
2018-02-19T02:23:32.756Z,0
2018-02-19T02:24:13.306Z,0
2018-02-19T02:24:53.857Z,0
2018-02-19T02:25:34.415Z,0
2018-02-19T02:26:14.986Z,0
2018-02-19T02:26:55.547Z,0
2018-02-19T02:27:36.247Z,0
2018-02-19T02:28:16.818Z,0
2018-02-19T02:28:57.371Z,0
2018-02-19T02:29:37.931Z,0
2018-02-19T02:30:18.495Z,0
2018-02-19T02:30:59.057Z,0
2018-02-19T02:31:39.622Z,0
2018-02-19T02:32:20.184Z,0
2018-02-19T02:33:00.738Z,0
2018-02-19T02:33:41.299Z,0
2018-02-19T02:34:21.845Z,0
2018-02-19T02:35:02.401Z,0
2018-02-19T02:35:42.974Z,0
2018-02-19T02:36:23.496Z,0
2018-02-19T02:37:04.058Z,0
2018-02-19T02:37:44.600Z,0
2018-02-19T02:38:25.176Z,0
2018-02-19T02:39:05.741Z,0
2018-02-19T02:39:46.309Z,0
2018-02-19T02:40:26.863Z,0
2018-02-19T02:41:07.416Z,0
2018-02-19T02:41:47.978Z,0
2018-02-19T02:42:28.547Z,0
2018-02-19T02:43:09.094Z,0
2018-02-19T02:43:49.641Z,0
2018-02-19T02:44:30.193Z,0
2018-02-19T02:45:10.744Z,0
2018-02-19T02:45:51.290Z,0
2018-02-19T02:46:31.833Z,0
2018-02-19T02:47:12.387Z,0
2018-02-19T02:47:52.938Z,0
2018-02-19T02:48:33.490Z,0
2018-02-19T02:49:14.035Z,0
2018-02-19T02:49:54.587Z,0
2018-02-19T02:50:35.139Z,0
2018-02-19T02:51:15.700Z,0
2018-02-19T02:51:56.290Z,0
2018-02-19T02:52:36.852Z,0
2018-02-19T02:53:17.437Z,0
2018-02-19T02:53:57.994Z,0
2018-02-19T02:54:38.562Z,0
2018-02-19T02:55:19.103Z,0
2018-02-19T02:55:59.657Z,0
2018-02-19T02:56:40.219Z,0
2018-02-19T02:57:20.775Z,0
2018-02-19T02:58:01.327Z,0
2018-02-19T02:58:41.874Z,0
2018-02-19T02:59:22.421Z,0
2018-02-19T03:00:02.947Z,0
2018-02-19T03:00:43.518Z,0
2018-02-19T03:01:24.063Z,0
2018-02-19T03:02:04.616Z,0
2018-02-19T03:02:45.193Z,0
2018-02-19T03:03:25.755Z,0
2018-02-19T03:04:06.312Z,0
2018-02-19T03:04:46.874Z,0
2018-02-19T03:05:27.408Z,0
2018-02-19T03:06:07.950Z,0
2018-02-19T03:06:48.520Z,0
2018-02-19T03:07:29.090Z,0
2018-02-19T03:08:09.644Z,0
2018-02-19T03:08:50.207Z,0
2018-02-19T03:09:30.786Z,0
2018-02-19T03:10:11.330Z,0
2018-02-19T03:10:51.856Z,0
2018-02-19T03:11:32.403Z,0
2018-02-19T03:12:12.957Z,0
2018-02-19T03:12:53.504Z,0
2018-02-19T03:13:34.055Z,0
2018-02-19T03:14:14.608Z,0
2018-02-19T03:14:55.162Z,0
2018-02-19T03:15:35.714Z,0
2018-02-19T03:16:16.273Z,0
2018-02-19T03:16:56.833Z,0
2018-02-19T03:17:37.400Z,0
2018-02-19T03:18:17.955Z,0
2018-02-19T03:18:58.520Z,0
2018-02-19T03:19:39.091Z,0
2018-02-19T03:20:19.645Z,0
2018-02-19T03:21:00.195Z,0
2018-02-19T03:21:40.755Z,0
2018-02-19T03:22:21.299Z,0
2018-02-19T03:23:01.854Z,0
2018-02-19T03:23:42.407Z,0
2018-02-19T03:24:22.978Z,0
2018-02-19T03:25:03.526Z,0
2018-02-19T03:25:44.263Z,0
2018-02-19T03:26:24.805Z,0
2018-02-19T03:27:05.354Z,0
2018-02-19T03:27:45.909Z,0
2018-02-19T03:28:26.518Z,0
2018-02-19T03:29:07.065Z,0
2018-02-19T03:29:47.644Z,0
2018-02-19T03:30:28.169Z,0
2018-02-19T03:31:08.728Z,0
2018-02-19T03:31:49.283Z,0
2018-02-19T03:32:29.833Z,0
2018-02-19T03:33:10.392Z,0
2018-02-19T03:33:50.939Z,0
2018-02-19T03:34:31.491Z,0
2018-02-19T03:35:12.061Z,0
2018-02-19T03:35:52.618Z,0
2018-02-19T03:36:33.174Z,0
2018-02-19T03:37:13.734Z,0
2018-02-19T03:37:54.283Z,0
2018-02-19T03:38:34.832Z,0
2018-02-19T03:39:15.392Z,0
2018-02-19T03:39:55.946Z,0
2018-02-19T03:40:36.491Z,0
2018-02-19T03:41:17.047Z,0
2018-02-19T03:41:57.625Z,0
2018-02-19T03:42:38.172Z,0
2018-02-19T03:43:18.731Z,0
2018-02-19T03:43:59.271Z,0
2018-02-19T03:44:39.819Z,0
2018-02-19T03:45:20.379Z,0
2018-02-19T03:46:00.954Z,0
2018-02-19T03:46:41.478Z,0
2018-02-19T03:47:22.006Z,0
2018-02-19T03:48:02.559Z,0
2018-02-19T03:48:43.125Z,0
2018-02-19T03:49:23.678Z,0
2018-02-19T03:50:04.254Z,0
2018-02-19T03:50:44.810Z,0
2018-02-19T03:51:25.351Z,0
2018-02-19T03:52:05.923Z,0
2018-02-19T03:52:46.497Z,0
2018-02-19T03:53:27.055Z,0
2018-02-19T03:54:07.609Z,0
2018-02-19T03:54:48.173Z,0
2018-02-19T03:55:28.703Z,0
2018-02-19T03:56:09.280Z,0
2018-02-19T03:56:49.817Z,0
2018-02-19T03:57:30.374Z,0
2018-02-19T03:58:10.928Z,0
2018-02-19T03:58:51.513Z,0
2018-02-19T03:59:32.064Z,0
2018-02-19T04:00:12.640Z,0
2018-02-19T04:00:53.195Z,0
2018-02-19T04:01:33.756Z,0
2018-02-19T04:02:14.316Z,0
2018-02-19T04:02:54.883Z,0
2018-02-19T04:03:35.439Z,0
2018-02-19T04:04:16.011Z,0
2018-02-19T04:04:56.571Z,0
2018-02-19T04:05:37.119Z,0
2018-02-19T04:06:17.671Z,0
2018-02-19T04:06:58.238Z,0
2018-02-19T04:07:38.810Z,0
2018-02-19T04:08:19.361Z,0
2018-02-19T04:08:59.901Z,0
2018-02-19T04:09:40.469Z,0
2018-02-19T04:10:21.020Z,0
2018-02-19T04:11:01.573Z,0
2018-02-19T04:11:42.121Z,0
2018-02-19T04:12:22.685Z,0
2018-02-19T04:13:03.226Z,0
2018-02-19T04:13:43.779Z,0
2018-02-19T04:14:24.328Z,0
2018-02-19T04:15:04.885Z,0
2018-02-19T04:15:45.436Z,0
2018-02-19T04:16:25.978Z,0
2018-02-19T04:17:06.571Z,0
2018-02-19T04:17:47.121Z,0
2018-02-19T04:18:27.675Z,0
2018-02-19T04:19:08.223Z,0
2018-02-19T04:19:48.775Z,0
2018-02-19T04:20:29.319Z,0
2018-02-19T04:21:09.877Z,0
2018-02-19T04:21:50.430Z,0
2018-02-19T04:22:31.001Z,0
2018-02-19T04:23:11.567Z,0
2018-02-19T04:23:52.112Z,0
2018-02-19T04:24:32.660Z,0
2018-02-19T04:25:13.207Z,0
2018-02-19T04:25:53.766Z,0
2018-02-19T04:26:34.311Z,0
2018-02-19T04:27:14.864Z,0
2018-02-19T04:27:55.418Z,0
2018-02-19T04:28:35.971Z,0
2018-02-19T04:29:16.521Z,0
2018-02-19T04:29:57.072Z,0
2018-02-19T04:30:37.626Z,0
2018-02-19T04:31:18.201Z,0
2018-02-19T04:31:58.755Z,0
2018-02-19T04:32:39.320Z,0
2018-02-19T04:33:19.874Z,0
2018-02-19T04:34:00.435Z,0
2018-02-19T04:34:41.003Z,0
2018-02-19T04:35:21.557Z,0
2018-02-19T04:36:02.114Z,0
2018-02-19T04:36:42.648Z,0
2018-02-19T04:37:23.214Z,0
2018-02-19T04:38:03.776Z,0
2018-02-19T04:38:44.308Z,0
2018-02-19T04:39:24.892Z,0
2018-02-19T04:40:05.468Z,0
2018-02-19T04:40:46.012Z,0
2018-02-19T04:41:26.590Z,0
2018-02-19T04:42:07.145Z,0
2018-02-19T04:42:47.703Z,0
2018-02-19T04:43:28.252Z,0
2018-02-19T04:44:08.817Z,0
2018-02-19T04:44:49.367Z,0
2018-02-19T04:45:29.918Z,0
2018-02-19T04:46:10.471Z,0
2018-02-19T04:46:51.065Z,0
2018-02-19T04:47:31.670Z,0
2018-02-19T04:48:12.231Z,0
2018-02-19T04:48:52.786Z,0
2018-02-19T04:49:33.340Z,0
2018-02-19T04:50:13.890Z,0
2018-02-19T04:50:54.457Z,0
2018-02-19T04:51:35.011Z,0
2018-02-19T04:52:15.570Z,0
2018-02-19T04:52:56.111Z,0
2018-02-19T04:53:36.666Z,0
2018-02-19T04:54:17.224Z,0
2018-02-19T04:54:57.760Z,0
2018-02-19T04:55:38.312Z,0
2018-02-19T04:56:18.868Z,0
2018-02-19T04:56:59.404Z,0
2018-02-19T04:57:39.950Z,0
2018-02-19T04:58:20.501Z,0
2018-02-19T04:59:01.055Z,0
2018-02-19T04:59:41.602Z,0
2018-02-19T05:00:22.147Z,0
2018-02-19T05:01:02.696Z,0
2018-02-19T05:01:43.241Z,0
2018-02-19T05:02:23.794Z,0
2018-02-19T05:03:04.392Z,0
2018-02-19T05:03:44.912Z,0
2018-02-19T05:04:25.458Z,0
2018-02-19T05:05:06.010Z,0
2018-02-19T05:05:46.578Z,0
2018-02-19T05:06:27.121Z,0
2018-02-19T05:07:07.664Z,0
2018-02-19T05:07:48.221Z,0
2018-02-19T05:08:28.774Z,0
2018-02-19T05:09:09.314Z,0
2018-02-19T05:09:49.859Z,0
2018-02-19T05:10:30.411Z,0
2018-02-19T05:11:10.979Z,0
2018-02-19T05:11:51.520Z,0
2018-02-19T05:12:32.087Z,0
2018-02-19T05:13:12.639Z,0
2018-02-19T05:13:53.215Z,0
2018-02-19T05:14:33.735Z,0
2018-02-19T05:15:14.296Z,0
2018-02-19T05:15:54.870Z,0
2018-02-19T05:16:35.424Z,0
2018-02-19T05:17:15.979Z,0
2018-02-19T05:17:56.573Z,0
2018-02-19T05:18:37.126Z,0
2018-02-19T05:19:17.717Z,0
2018-02-19T05:19:58.310Z,0
2018-02-19T05:20:38.866Z,0
2018-02-19T05:21:19.422Z,0
2018-02-19T05:21:59.974Z,0
2018-02-19T05:22:40.532Z,0
2018-02-19T05:23:21.647Z,0
2018-02-19T05:24:01.748Z,0
2018-02-19T05:24:42.298Z,0
2018-02-19T05:25:22.847Z,0
2018-02-19T05:26:03.429Z,0
2018-02-19T05:26:44.034Z,0
2018-02-19T05:27:24.600Z,0
2018-02-19T05:28:05.154Z,0
2018-02-19T05:28:45.717Z,0
2018-02-19T05:29:26.250Z,0
2018-02-19T05:30:06.830Z,0
2018-02-19T05:30:47.406Z,0
2018-02-19T05:31:28.039Z,0
2018-02-19T05:32:08.610Z,0
2018-02-19T05:32:49.162Z,0
2018-02-19T05:33:29.741Z,0
2018-02-19T05:34:10.299Z,0
2018-02-19T05:34:50.857Z,0
2018-02-19T05:35:31.426Z,0
2018-02-19T05:36:11.992Z,0
2018-02-19T05:36:52.533Z,0
2018-02-19T05:37:33.090Z,0
2018-02-19T05:38:13.676Z,0
2018-02-19T05:38:54.224Z,0
2018-02-19T05:39:34.832Z,0
2018-02-19T05:40:15.379Z,0
2018-02-19T05:40:55.931Z,0
2018-02-19T05:41:36.480Z,0
2018-02-19T05:42:17.036Z,0
2018-02-19T05:42:57.658Z,4
2018-02-19T05:43:38.221Z,4
2018-02-19T05:44:18.790Z,0
2018-02-19T05:44:59.333Z,0
2018-02-19T05:45:39.905Z,4
2018-02-19T05:46:20.442Z,4
2018-02-19T05:47:00.996Z,4
2018-02-19T05:47:42.330Z,4
2018-02-19T05:48:23.041Z,4
2018-02-19T05:49:03.595Z,4
2018-02-19T05:49:44.168Z,4
2018-02-19T05:50:24.738Z,8
2018-02-19T05:51:05.298Z,4
2018-02-19T05:51:45.849Z,8
2018-02-19T05:52:26.389Z,8
2018-02-19T05:53:06.953Z,8
2018-02-19T05:53:47.629Z,12
2018-02-19T05:54:28.178Z,12
2018-02-19T05:55:08.823Z,12
2018-02-19T05:55:49.412Z,12
2018-02-19T05:56:29.969Z,16
2018-02-19T05:57:10.513Z,20
2018-02-19T05:57:51.113Z,16
2018-02-19T05:58:31.664Z,20
2018-02-19T05:59:12.216Z,24
2018-02-19T05:59:52.774Z,28
2018-02-19T06:00:33.346Z,28
2018-02-19T06:01:13.896Z,28
2018-02-19T06:01:54.438Z,32
2018-02-19T06:02:35.003Z,32
2018-02-19T06:03:15.529Z,36
2018-02-19T06:03:56.133Z,36
2018-02-19T06:04:36.684Z,40
2018-02-19T06:05:17.391Z,40
2018-02-19T06:05:57.957Z,48
2018-02-19T06:06:38.507Z,48
2018-02-19T06:07:19.067Z,48
2018-02-19T06:07:59.621Z,52
2018-02-19T06:08:40.271Z,56
2018-02-19T06:09:20.814Z,60
2018-02-19T06:10:01.381Z,60
2018-02-19T06:10:41.952Z,60
2018-02-19T06:11:22.504Z,68
2018-02-19T06:12:03.060Z,68
2018-02-19T06:12:43.595Z,68
2018-02-19T06:13:24.157Z,72
2018-02-19T06:14:04.711Z,76
2018-02-19T06:14:45.260Z,80
2018-02-19T06:15:25.811Z,84
2018-02-19T06:16:06.354Z,92
2018-02-19T06:16:46.888Z,96
2018-02-19T06:17:27.453Z,108
2018-02-19T06:18:08.005Z,116
2018-02-19T06:18:48.564Z,124
2018-02-19T06:19:29.115Z,136
2018-02-19T06:20:09.669Z,148
2018-02-19T06:20:50.224Z,164
2018-02-19T06:21:30.779Z,176
2018-02-19T06:22:11.340Z,192
2018-02-19T06:22:51.902Z,208
2018-02-19T06:23:32.451Z,224
2018-02-19T06:24:13.000Z,244
2018-02-19T06:24:53.555Z,260
2018-02-19T06:25:34.112Z,276
2018-02-19T06:26:14.664Z,300
2018-02-19T06:26:55.219Z,320
2018-02-19T06:27:35.796Z,344
2018-02-19T06:28:16.345Z,360
2018-02-19T06:28:56.910Z,388
2018-02-19T06:29:37.474Z,408
2018-02-19T06:30:18.010Z,436
2018-02-19T06:30:58.568Z,464
2018-02-19T06:31:39.134Z,492
2018-02-19T06:32:19.712Z,520
2018-02-19T06:33:00.271Z,552
2018-02-19T06:33:40.834Z,588
2018-02-19T06:34:21.429Z,616
2018-02-19T06:35:01.987Z,652
2018-02-19T06:35:42.537Z,684
2018-02-19T06:36:23.083Z,720
2018-02-19T06:37:03.640Z,752
2018-02-19T06:37:44.262Z,784
2018-02-19T06:38:24.843Z,820
2018-02-19T06:39:05.374Z,852
2018-02-19T06:39:45.924Z,888
2018-02-19T06:40:26.477Z,920
2018-02-19T06:41:07.033Z,952
2018-02-19T06:41:47.680Z,980
2018-02-19T06:42:28.252Z,1012
2018-02-19T06:43:08.815Z,1040
2018-02-19T06:43:49.359Z,1068
2018-02-19T06:44:29.925Z,1100
2018-02-19T06:45:10.482Z,1128
2018-02-19T06:45:51.025Z,1160
2018-02-19T06:46:31.578Z,1192
2018-02-19T06:47:12.138Z,1224
2018-02-19T06:47:52.669Z,1256
2018-02-19T06:48:33.238Z,1292
2018-02-19T06:49:14.665Z,1324
2018-02-19T06:49:55.228Z,1360
2018-02-19T06:50:35.777Z,1392
2018-02-19T06:51:16.312Z,1432
2018-02-19T06:51:56.871Z,1464
2018-02-19T06:52:37.417Z,1496
2018-02-19T06:53:17.969Z,1524
2018-02-19T06:53:58.557Z,1552
2018-02-19T06:54:39.085Z,1580
2018-02-19T06:55:19.648Z,1604
2018-02-19T06:56:00.188Z,1628
2018-02-19T06:56:40.746Z,1648
2018-02-19T06:57:21.304Z,1676
2018-02-19T06:58:01.875Z,1700
2018-02-19T06:58:42.427Z,1732
2018-02-19T06:59:22.984Z,1752
2018-02-19T07:00:03.535Z,1780
2018-02-19T07:00:44.080Z,1804
2018-02-19T07:01:24.638Z,1840
2018-02-19T07:02:05.183Z,1872
2018-02-19T07:02:45.744Z,1904
2018-02-19T07:03:26.306Z,1936
2018-02-19T07:04:06.845Z,1972
2018-02-19T07:04:48.031Z,2012
2018-02-19T07:05:27.964Z,2060
2018-02-19T07:06:08.519Z,2112
2018-02-19T07:06:49.082Z,2172
2018-02-19T07:07:29.649Z,2240
2018-02-19T07:08:10.255Z,2304
2018-02-19T07:08:50.824Z,2372
2018-02-19T07:09:31.381Z,2432
2018-02-19T07:10:11.960Z,2484
2018-02-19T07:10:52.531Z,2528
2018-02-19T07:11:33.088Z,2556
2018-02-19T07:12:13.655Z,2568
2018-02-19T07:12:54.193Z,2556
2018-02-19T07:13:34.763Z,2528
2018-02-19T07:14:15.307Z,2500
2018-02-19T07:14:55.913Z,2456
2018-02-19T07:15:36.461Z,2400
2018-02-19T07:16:17.022Z,2340
2018-02-19T07:16:57.580Z,2292
2018-02-19T07:17:38.127Z,2252
2018-02-19T07:18:18.684Z,2212
2018-02-19T07:18:59.250Z,2176
2018-02-19T07:19:39.860Z,2140
2018-02-19T07:20:20.372Z,2112
2018-02-19T07:21:00.924Z,2084
2018-02-19T07:21:41.470Z,2064
2018-02-19T07:22:22.008Z,2044
2018-02-19T07:23:02.569Z,2024
2018-02-19T07:23:43.138Z,2012
2018-02-19T07:24:23.685Z,2000
2018-02-19T07:25:04.288Z,2000
2018-02-19T07:25:44.773Z,2004
2018-02-19T07:26:25.340Z,2004
2018-02-19T07:27:05.875Z,2012
2018-02-19T07:27:46.444Z,2020
2018-02-19T07:28:26.988Z,2032
2018-02-19T07:29:07.535Z,2032
2018-02-19T07:29:48.096Z,2036
2018-02-19T07:30:28.631Z,2044
2018-02-19T07:31:09.195Z,2060
2018-02-19T07:31:49.747Z,2084
2018-02-19T07:32:30.301Z,2112
2018-02-19T07:33:10.848Z,2156
2018-02-19T07:33:51.387Z,2208
2018-02-19T07:34:31.951Z,2272
2018-02-19T07:35:12.489Z,2348
2018-02-19T07:35:53.018Z,2440
2018-02-19T07:36:33.568Z,2544
2018-02-19T07:37:14.140Z,2664
2018-02-19T07:37:54.709Z,2800
2018-02-19T07:38:35.358Z,2944
2018-02-19T07:39:15.909Z,3092
2018-02-19T07:39:56.483Z,3240
2018-02-19T07:40:37.025Z,3388
2018-02-19T07:41:17.593Z,3544
2018-02-19T07:41:58.171Z,3692
2018-02-19T07:42:38.733Z,3824
2018-02-19T07:43:19.301Z,3964
2018-02-19T07:43:59.856Z,4092
2018-02-19T07:44:40.427Z,4196
2018-02-19T07:45:20.981Z,4292
2018-02-19T07:46:01.523Z,4372
2018-02-19T07:46:42.072Z,4444
2018-02-19T07:47:22.654Z,4508
2018-02-19T07:48:03.226Z,4584
2018-02-19T07:48:43.794Z,4648
2018-02-19T07:49:24.340Z,4720
2018-02-19T07:50:04.904Z,4808
2018-02-19T07:50:45.463Z,4876
2018-02-19T07:51:26.014Z,4936
2018-02-19T07:52:06.587Z,4968
2018-02-19T07:52:47.141Z,4992
2018-02-19T07:53:27.684Z,5008
2018-02-19T07:54:08.236Z,5048
2018-02-19T07:54:48.798Z,5116
2018-02-19T07:55:29.352Z,5204
2018-02-19T07:56:09.930Z,5296
2018-02-19T07:56:50.490Z,5428
2018-02-19T07:57:31.125Z,5560
2018-02-19T07:58:11.676Z,5624
2018-02-19T07:58:52.237Z,5644
2018-02-19T07:59:32.881Z,5696
2018-02-19T08:00:13.415Z,5764
2018-02-19T08:00:53.967Z,5776
2018-02-19T08:01:34.542Z,5816
2018-02-19T08:02:15.105Z,5948
2018-02-19T08:02:55.675Z,6080
2018-02-19T08:03:36.226Z,6248
2018-02-19T08:04:16.794Z,6508
2018-02-19T08:04:57.388Z,6812
2018-02-19T08:05:37.986Z,6960
2018-02-19T08:06:18.543Z,7088
2018-02-19T08:06:59.093Z,7136
2018-02-19T08:07:39.653Z,7196
2018-02-19T08:08:20.231Z,7048
2018-02-19T08:09:00.788Z,6972
2018-02-19T08:09:41.349Z,6912
2018-02-19T08:10:21.910Z,6888
2018-02-19T08:11:02.466Z,6976
2018-02-19T08:11:43.037Z,6900
2018-02-19T08:12:23.608Z,6912
2018-02-19T08:13:04.185Z,7080
2018-02-19T08:13:44.731Z,7348
2018-02-19T08:14:25.283Z,7692
2018-02-19T08:15:05.848Z,8480
2018-02-19T08:15:46.424Z,10620
2018-02-19T08:16:26.978Z,11180
2018-02-19T08:17:07.578Z,8368
2018-02-19T08:17:48.105Z,7516
2018-02-19T08:18:28.672Z,6900
2018-02-19T08:19:09.218Z,7508
2018-02-19T08:19:49.781Z,9344
2018-02-19T08:20:30.317Z,12256
2018-02-19T08:21:10.877Z,12204
2018-02-19T08:21:51.434Z,11364
2018-02-19T08:22:31.984Z,11072
2018-02-19T08:23:12.535Z,12412
2018-02-19T08:23:53.131Z,13020
2018-02-19T08:24:33.657Z,13172
2018-02-19T08:25:14.199Z,10192
2018-02-19T08:25:54.750Z,11596
2018-02-19T08:26:35.330Z,8900
2018-02-19T08:27:15.881Z,8932
2018-02-19T08:27:56.450Z,12156
2018-02-19T08:28:37.003Z,14860
2018-02-19T08:29:17.554Z,16704
2018-02-19T08:29:58.116Z,17600
2018-02-19T08:30:38.682Z,20928
2018-02-19T08:31:19.251Z,22432
2018-02-19T08:31:59.810Z,24000
2018-02-19T08:32:40.374Z,28064
2018-02-19T08:33:20.914Z,28064
2018-02-19T08:34:01.472Z,26944
2018-02-19T08:34:42.028Z,24192
2018-02-19T08:35:22.587Z,20864
2018-02-19T08:36:03.141Z,13372
2018-02-19T08:36:43.700Z,19360
2018-02-19T08:37:24.246Z,19744
2018-02-19T08:38:04.863Z,20512
2018-02-19T08:38:45.470Z,13984
2018-02-19T08:39:25.997Z,11004
2018-02-19T08:40:06.545Z,11296
2018-02-19T08:40:47.111Z,10456
2018-02-19T08:41:27.674Z,8860
2018-02-19T08:42:08.213Z,7260
2018-02-19T08:42:48.750Z,6500
2018-02-19T08:43:29.301Z,6448
2018-02-19T08:44:09.862Z,6004
2018-02-19T08:44:50.442Z,5360
2018-02-19T08:45:31.015Z,5144
2018-02-19T08:46:11.586Z,5356
2018-02-19T08:46:52.108Z,5496
2018-02-19T08:47:32.660Z,6004
2018-02-19T08:48:13.211Z,6640
2018-02-19T08:48:53.826Z,6720
2018-02-19T08:49:34.326Z,7152
2018-02-19T08:50:14.876Z,7508
2018-02-19T08:50:55.442Z,8728
2018-02-19T08:51:35.992Z,8836
2018-02-19T08:52:16.551Z,8404
2018-02-19T08:52:57.111Z,9240
2018-02-19T08:53:37.660Z,11452
2018-02-19T08:54:18.253Z,11108
2018-02-19T08:54:58.781Z,11532
2018-02-19T08:55:39.342Z,11136
2018-02-19T08:56:19.898Z,10764
2018-02-19T08:57:00.440Z,10640
2018-02-19T08:57:41.004Z,10632
2018-02-19T08:58:21.568Z,10548
2018-02-19T08:59:02.131Z,12820
2018-02-19T08:59:42.681Z,14880
2018-02-19T09:00:23.254Z,15712
2018-02-19T09:01:03.834Z,13492
2018-02-19T09:01:44.389Z,14304
2018-02-19T09:02:24.966Z,13296
2018-02-19T09:03:05.511Z,12568
2018-02-19T09:03:46.058Z,11540
2018-02-19T09:04:26.602Z,12092
2018-02-19T09:05:07.167Z,14408
2018-02-19T09:05:47.721Z,13584
2018-02-19T09:06:28.289Z,8948
2018-02-19T09:07:08.853Z,7848
2018-02-19T09:07:49.391Z,8252
2018-02-19T09:08:29.941Z,8524
2018-02-19T09:09:10.492Z,9720
2018-02-19T09:09:51.051Z,11720
2018-02-19T09:10:31.595Z,12164
2018-02-19T09:11:12.191Z,11464
2018-02-19T09:11:52.731Z,10392
2018-02-19T09:12:33.343Z,9936
2018-02-19T09:13:13.902Z,10480
2018-02-19T09:13:54.473Z,10396
2018-02-19T09:14:35.050Z,10288
2018-02-19T09:15:15.796Z,9676
2018-02-19T09:15:56.355Z,9552
2018-02-19T09:16:36.925Z,9428
2018-02-19T09:17:17.481Z,9052
2018-02-19T09:17:58.037Z,8452
2018-02-19T09:18:38.598Z,8448
2018-02-19T09:19:19.140Z,8104
2018-02-19T09:19:59.699Z,7536
2018-02-19T09:20:40.261Z,7260
2018-02-19T09:21:20.825Z,7128
2018-02-19T09:22:01.406Z,7024
2018-02-19T09:22:41.969Z,6980
2018-02-19T09:23:22.531Z,6848
2018-02-19T09:24:03.095Z,6760
2018-02-19T09:24:43.661Z,6500
2018-02-19T09:25:24.214Z,6420
2018-02-19T09:26:04.766Z,6500
2018-02-19T09:26:45.325Z,6684
2018-02-19T09:27:25.863Z,6684
2018-02-19T09:28:06.418Z,6672
2018-02-19T09:28:46.964Z,6652
2018-02-19T09:29:27.522Z,6784
2018-02-19T09:30:08.080Z,6896
2018-02-19T09:30:48.620Z,6896
2018-02-19T09:31:29.173Z,6892
2018-02-19T09:32:09.727Z,6880
2018-02-19T09:32:50.362Z,6744
2018-02-19T09:33:30.931Z,6584
2018-02-19T09:34:11.490Z,6452
2018-02-19T09:34:52.075Z,6384
2018-02-19T09:35:32.646Z,6204
2018-02-19T09:36:13.274Z,6036
2018-02-19T09:36:53.769Z,5920
2018-02-19T09:37:34.339Z,5836
2018-02-19T09:38:14.916Z,5764